Eastborough, Kansas
Current Conditions -  °F | °C
As of 7:58 PM on Saturday 25 Oct 2014 (Local Time) from KIAB Reporting Station
Clear Clear  
Wind Chill: 74°   Ceiling: Unl
Heat Index: 74°   Visibility: 10mi
Dew Point: 59°   Wind: 7mph
Humidity: 61%   Direction: 130°SE
Pressure: 29.98"   Gusts: NA
Location:  37.6676°N, 97.2266°W
Report Text: KIAB 260058Z AUTO 13006KT 10SM CLR 23/15 A2998 RMK AO2 SLP147 T02310151
Loading
Personal Weather Stations






























Interactive Weather Map New forecast layout! Learn more

10-Day Weather Forecast

Advertisements
Track Severe Weather on mobile